Time;durP1;ratioP1;P1;durP2;ratioP2;P2;SDS_P1;SDS_P2;PMS_P1;PMS_P2;Temp;Humidity;BMP_temperature;BMP_pressure;BME280_temperature;BME280_humidity;BME280_pressure;Samples;Min_cycle;Max_cycle;Signal;HPM_P1;HPM_P2
2022/07/01 00:02:24;;;;;;;9.85;4.43;;;;;;;;;;5064349;28;20055;-69
2022/07/01 00:04:50;;;;;;;7.78;4.07;;;;;;;;;;5058442;28;20041;-70
2022/07/01 00:07:35;;;;;;;15.20;4.93;;;;;;;;;;5057706;28;20706;-68
2022/07/01 00:10:01;;;;;;;9.38;5.05;;;;;;;;;;5071211;28;20036;-67
2022/07/01 00:12:26;;;;;;;19.98;4.63;;;;;;;;;;5070980;28;20028;-67
2022/07/01 00:14:52;;;;;;;7.32;4.38;;;;;;;;;;5070941;28;20072;-68
2022/07/01 00:17:18;;;;;;;11.98;4.60;;;;;;;;;;5071138;28;20032;-72
2022/07/01 00:19:44;;;;;;;8.07;4.47;;;;;;;;;;5070372;28;20103;-71
2022/07/01 00:22:09;;;;;;;7.07;4.60;;;;;;;;;;5070618;28;20045;-71
2022/07/01 00:24:36;;;;;;;10.73;5.30;;;;;;;;;;5070833;28;20043;-72
2022/07/01 00:27:04;;;;;;;12.15;4.50;;;;;;;;;;5066899;28;20048;-71
2022/07/01 00:29:30;;;;;;;9.63;4.68;;;;;;;;;;5053136;28;20048;-69
2022/07/01 00:31:56;;;;;;;9.75;4.28;;;;;;;;;;5050345;28;20037;-71
2022/07/01 00:34:21;;;;;;;8.05;4.40;;;;;;;;;;5068941;28;20045;-70
2022/07/01 00:36:47;;;;;;;12.40;4.60;;;;;;;;;;5070940;28;20042;-73
2022/07/01 00:39:13;;;;;;;9.57;4.35;;;;;;;;;;5070598;28;20041;-70
2022/07/01 00:41:39;;;;;;;6.68;4.25;;;;;;;;;;5070474;28;20082;-70
2022/07/01 00:44:05;;;;;;;9.38;4.40;;;;;;;;;;5070619;28;20383;-72
2022/07/01 00:46:32;;;;;;;11.10;5.18;;;;;;;;;;5069785;28;20029;-71
2022/07/01 00:49:00;;;;;;;9.35;4.95;;;;;;;;;;5068483;28;20029;-70
2022/07/01 00:51:25;;;;;;;10.32;5.03;;;;;;;;;;5069649;28;20036;-69
2022/07/01 00:53:52;;;;;;;14.60;5.03;;;;;;;;;;5069734;28;20029;-68
2022/07/01 00:56:19;;;;;;;16.25;5.20;;;;;;;;;;5070892;28;20050;-70
2022/07/01 00:58:45;;;;;;;10.90;5.50;;;;;;;;;;5071129;28;20035;-71
2022/07/01 01:01:11;;;;;;;13.32;4.82;;;;;;;;;;5070921;28;20070;-68
2022/07/01 01:03:37;;;;;;;10.57;5.25;;;;;;;;;;5070824;28;20044;-68
2022/07/01 01:06:03;;;;;;;9.20;5.38;;;;;;;;;;5070964;28;21412;-67
2022/07/01 01:08:29;;;;;;;15.02;5.72;;;;;;;;;;5073688;28;20033;-69
2022/07/01 01:10:55;;;;;;;13.63;5.60;;;;;;;;;;5074668;28;20071;-67
2022/07/01 01:13:21;;;;;;;11.13;4.97;;;;;;;;;;5074895;28;20036;-72
2022/07/01 01:15:47;;;;;;;11.98;5.40;;;;;;;;;;5074426;28;20035;-67
2022/07/01 01:18:13;;;;;;;8.23;5.55;;;;;;;;;;5074635;28;20037;-67
2022/07/01 01:20:39;;;;;;;22.00;5.35;;;;;;;;;;5074684;28;20067;-67
2022/07/01 01:23:05;;;;;;;10.90;5.53;;;;;;;;;;5074848;28;20028;-66
2022/07/01 01:25:34;;;;;;;9.80;4.90;;;;;;;;;;5074713;28;20418;-70
2022/07/01 01:28:00;;;;;;;12.25;4.88;;;;;;;;;;5074625;28;20029;-67
2022/07/01 01:30:26;;;;;;;10.18;5.15;;;;;;;;;;5074593;28;20058;-69
2022/07/01 01:32:52;;;;;;;10.18;5.53;;;;;;;;;;5074416;28;20036;-68
2022/07/01 01:35:19;;;;;;;14.35;5.00;;;;;;;;;;5074693;28;20028;-68
2022/07/01 01:37:46;;;;;;;6.95;5.05;;;;;;;;;;5068101;28;20040;-68
2022/07/01 01:40:15;;;;;;;10.27;4.95;;;;;;;;;;5059890;28;20044;-68
2022/07/01 01:42:42;;;;;;;7.88;4.70;;;;;;;;;;5052782;28;20048;-71
2022/07/01 01:45:08;;;;;;;10.77;5.22;;;;;;;;;;5054318;28;20060;-67
2022/07/01 01:47:34;;;;;;;15.70;5.53;;;;;;;;;;5054205;28;20109;-68
2022/07/01 01:50:00;;;;;;;8.40;5.25;;;;;;;;;;5053879;28;20528;-68
2022/07/01 01:52:26;;;;;;;11.95;5.20;;;;;;;;;;5053647;28;20028;-69
2022/07/01 01:54:52;;;;;;;11.68;5.00;;;;;;;;;;5054009;28;20044;-68
2022/07/01 01:57:17;;;;;;;10.57;5.35;;;;;;;;;;5054180;28;20499;-67
2022/07/01 01:59:43;;;;;;;10.70;4.60;;;;;;;;;;5053880;28;20029;-74
2022/07/01 02:02:09;;;;;;;12.68;5.10;;;;;;;;;;5053628;28;20037;-71
2022/07/01 02:04:35;;;;;;;11.07;5.78;;;;;;;;;;5053653;28;20025;-75
2022/07/01 02:07:01;;;;;;;10.45;5.50;;;;;;;;;;5053558;28;20388;-72
2022/07/01 02:09:28;;;;;;;10.32;5.47;;;;;;;;;;5053416;28;20040;-71
2022/07/01 02:11:54;;;;;;;10.88;5.30;;;;;;;;;;5053240;28;20036;-68
2022/07/01 02:14:19;;;;;;;13.77;5.25;;;;;;;;;;5053281;28;20139;-70
2022/07/01 02:16:45;;;;;;;13.77;5.43;;;;;;;;;;5064774;28;20094;-70
2022/07/01 02:19:11;;;;;;;14.65;5.63;;;;;;;;;;5052487;28;20031;-72
2022/07/01 02:21:37;;;;;;;8.65;4.82;;;;;;;;;;5053315;28;20049;-68
2022/07/01 02:24:03;;;;;;;11.35;5.53;;;;;;;;;;5053367;28;20086;-67
2022/07/01 02:26:29;;;;;;;14.30;5.63;;;;;;;;;;5053535;28;20422;-72
2022/07/01 02:28:54;;;;;;;6.15;5.13;;;;;;;;;;5053226;28;20055;-67
2022/07/01 02:31:20;;;;;;;11.30;5.88;;;;;;;;;;5053430;28;20507;-71
2022/07/01 02:33:46;;;;;;;11.52;5.43;;;;;;;;;;5052927;28;20108;-70
2022/07/01 02:36:13;;;;;;;10.38;5.32;;;;;;;;;;5052819;28;20100;-70
2022/07/01 02:38:39;;;;;;;9.63;5.15;;;;;;;;;;5053729;28;20069;-68
2022/07/01 02:41:04;;;;;;;12.50;5.57;;;;;;;;;;5059703;28;20382;-70
2022/07/01 02:43:30;;;;;;;12.00;5.60;;;;;;;;;;5072965;28;20032;-70
2022/07/01 02:45:57;;;;;;;6.25;4.80;;;;;;;;;;5073537;28;20040;-68
2022/07/01 02:48:23;;;;;;;7.18;4.68;;;;;;;;;;5073568;28;20104;-71
2022/07/01 02:50:49;;;;;;;9.05;5.07;;;;;;;;;;5072487;28;20128;-72
2022/07/01 02:53:15;;;;;;;13.10;5.30;;;;;;;;;;5072448;28;20303;-67
2022/07/01 02:55:41;;;;;;;16.42;6.03;;;;;;;;;;5072498;28;20036;-67
2022/07/01 02:58:06;;;;;;;9.02;5.05;;;;;;;;;;5073028;28;20455;-68
2022/07/01 03:00:32;;;;;;;10.35;5.55;;;;;;;;;;5072420;28;20024;-68
2022/07/01 03:02:58;;;;;;;8.60;4.68;;;;;;;;;;5072168;28;20032;-69
2022/07/01 03:05:24;;;;;;;9.90;5.07;;;;;;;;;;5072718;28;20033;-73
2022/07/01 03:07:50;;;;;;;17.63;5.78;;;;;;;;;;5072447;28;20071;-68
2022/07/01 03:10:15;;;;;;;9.07;5.50;;;;;;;;;;5072430;28;20487;-67
2022/07/01 03:12:41;;;;;;;11.60;5.25;;;;;;;;;;5072437;28;20025;-67
2022/07/01 03:15:10;;;;;;;9.43;5.80;;;;;;;;;;5072647;28;20041;-68
2022/07/01 03:17:38;;;;;;;13.90;6.20;;;;;;;;;;5072516;28;20036;-69
2022/07/01 03:20:06;;;;;;;20.40;7.15;;;;;;;;;;5071999;28;20032;-70
2022/07/01 03:22:32;;;;;;;11.82;6.15;;;;;;;;;;5072034;28;20040;-68
2022/07/01 03:24:58;;;;;;;20.27;8.50;;;;;;;;;;5072110;28;20058;-67
2022/07/01 03:27:25;;;;;;;12.20;6.40;;;;;;;;;;5072108;28;20105;-67
2022/07/01 03:29:51;;;;;;;13.02;6.22;;;;;;;;;;5069153;28;20104;-68
2022/07/01 03:32:18;;;;;;;19.85;6.18;;;;;;;;;;5033580;28;20040;-68
2022/07/01 03:34:49;;;;;;;16.10;6.70;;;;;;;;;;5051595;28;20041;-68
2022/07/01 03:37:16;;;;;;;16.02;6.50;;;;;;;;;;5051386;28;20037;-72
2022/07/01 03:39:42;;;;;;;16.05;6.38;;;;;;;;;;5062644;28;20353;-71
2022/07/01 03:42:09;;;;;;;12.88;6.95;;;;;;;;;;5059450;28;20040;-70
2022/07/01 03:44:35;;;;;;;13.23;7.20;;;;;;;;;;5051521;28;20025;-69
2022/07/01 03:47:02;;;;;;;20.50;7.20;;;;;;;;;;5051620;28;20073;-70
2022/07/01 03:49:28;;;;;;;9.10;6.28;;;;;;;;;;5051563;28;20475;-68
2022/07/01 03:51:54;;;;;;;13.57;6.97;;;;;;;;;;5051687;28;20056;-70
2022/07/01 03:54:29;;;;;;;14.13;6.43;;;;;;;;;;5051517;28;20025;-69
2022/07/01 03:57:00;;;;;;;17.52;6.05;;;;;;;;;;5051484;28;20029;-69
2022/07/01 03:59:27;;;;;;;10.07;5.75;;;;;;;;;;5051350;28;20430;-69
2022/07/01 04:01:54;;;;;;;13.38;5.95;;;;;;;;;;5051347;28;20110;-68
2022/07/01 04:04:20;;;;;;;11.05;6.05;;;;;;;;;;5051309;28;20040;-66
2022/07/01 04:06:47;;;;;;;12.02;6.05;;;;;;;;;;5051193;28;20029;-67
2022/07/01 04:09:15;;;;;;;12.48;6.03;;;;;;;;;;5051105;28;20028;-67
2022/07/01 04:11:44;;;;;;;14.55;6.20;;;;;;;;;;5054230;28;20124;-69
2022/07/01 04:14:10;;;;;;;12.02;5.20;;;;;;;;;;5050929;28;20113;-67
2022/07/01 04:16:36;;;;;;;13.60;5.65;;;;;;;;;;5051233;28;20401;-69
2022/07/01 04:19:03;;;;;;;21.45;6.68;;;;;;;;;;5050954;28;20091;-67
2022/07/01 04:24:16;;;;;;;23.38;7.70;;;;;;;;;;5050933;28;20044;-70
2022/07/01 04:26:43;;;;;;;10.98;6.38;;;;;;;;;;5050325;28;20036;-68
2022/07/01 04:29:09;;;;;;;8.75;5.18;;;;;;;;;;5050676;28;20044;-68
2022/07/01 04:31:36;;;;;;;9.55;5.63;;;;;;;;;;5050661;28;20056;-70
2022/07/01 04:34:03;;;;;;;14.32;6.22;;;;;;;;;;5050926;28;20033;-68
2022/07/01 04:36:29;;;;;;;10.77;5.70;;;;;;;;;;5050944;28;20399;-70
2022/07/01 04:38:54;;;;;;;13.40;5.80;;;;;;;;;;5050711;28;20036;-70
2022/07/01 04:44:04;;;;;;;11.05;5.65;;;;;;;;;;5070797;28;20040;-69
2022/07/01 04:46:30;;;;;;;14.07;6.22;;;;;;;;;;5070887;28;20028;-72
2022/07/01 04:48:56;;;;;;;10.05;5.43;;;;;;;;;;5057338;28;20025;-67
2022/07/01 04:51:22;;;;;;;8.65;4.80;;;;;;;;;;5050647;28;20033;-66
2022/07/01 04:53:48;;;;;;;10.00;5.43;;;;;;;;;;5050859;28;20037;-69
2022/07/01 04:56:14;;;;;;;8.30;5.22;;;;;;;;;;5055587;28;20152;-67
2022/07/01 04:58:40;;;;;;;12.63;6.10;;;;;;;;;;5050523;28;20032;-67
2022/07/01 05:01:06;;;;;;;8.95;5.35;;;;;;;;;;5050612;28;20025;-69
2022/07/01 05:03:32;;;;;;;7.93;5.20;;;;;;;;;;5050522;28;20048;-68
2022/07/01 05:05:58;;;;;;;9.98;5.13;;;;;;;;;;5054908;28;20033;-70
2022/07/01 05:08:24;;;;;;;9.20;4.88;;;;;;;;;;5049466;28;20029;-68
2022/07/01 05:10:49;;;;;;;10.05;4.57;;;;;;;;;;5050552;28;20078;-73
2022/07/01 05:13:15;;;;;;;6.53;4.35;;;;;;;;;;5050428;28;20037;-72
2022/07/01 05:15:41;;;;;;;11.48;4.47;;;;;;;;;;5050769;28;20032;-69
2022/07/01 05:23:36;;;;;;;8.73;5.00;;;;;;;;;;5061044;28;20067;-68
2022/07/01 05:26:03;;;;;;;10.48;5.57;;;;;;;;;;5066463;28;20047;-66
2022/07/01 05:28:29;;;;;;;15.52;5.75;;;;;;;;;;5053263;28;20029;-68
2022/07/01 05:30:55;;;;;;;11.65;5.10;;;;;;;;;;5049769;28;20548;-68
2022/07/01 05:33:21;;;;;;;7.93;4.20;;;;;;;;;;5049147;28;20033;-71
2022/07/01 05:35:48;;;;;;;11.10;4.45;;;;;;;;;;5048808;28;20087;-68
2022/07/01 05:38:14;;;;;;;8.80;4.30;;;;;;;;;;5049985;28;20037;-74
2022/07/01 05:40:40;;;;;;;8.82;4.32;;;;;;;;;;5066570;28;20074;-73
2022/07/01 05:43:06;;;;;;;9.65;4.72;;;;;;;;;;5069647;28;20115;-67
2022/07/01 05:45:32;;;;;;;10.48;4.75;;;;;;;;;;5068975;28;20028;-69
2022/07/01 05:47:58;;;;;;;11.88;5.03;;;;;;;;;;5057264;28;20036;-67
2022/07/01 05:50:24;;;;;;;8.95;4.38;;;;;;;;;;5048562;28;20024;-67
2022/07/01 05:52:50;;;;;;;8.93;4.10;;;;;;;;;;5061867;28;20387;-68
2022/07/01 05:55:16;;;;;;;8.95;4.30;;;;;;;;;;5073579;28;20111;-68
2022/07/01 05:57:42;;;;;;;8.10;4.13;;;;;;;;;;5073498;28;20543;-68
2022/07/01 06:00:09;;;;;;;15.73;4.50;;;;;;;;;;5073013;28;20032;-67
2022/07/01 06:02:38;;;;;;;10.30;4.60;;;;;;;;;;5071846;28;20038;-68
2022/07/01 06:05:04;;;;;;;7.15;4.10;;;;;;;;;;5072775;28;20024;-67
2022/07/01 06:07:30;;;;;;;9.00;4.28;;;;;;;;;;5072650;28;20040;-70
2022/07/01 06:09:56;;;;;;;5.63;3.65;;;;;;;;;;5073364;28;20384;-68
2022/07/01 06:12:22;;;;;;;6.90;4.05;;;;;;;;;;5073484;28;20395;-68
2022/07/01 06:14:48;;;;;;;9.80;4.40;;;;;;;;;;5073142;28;20032;-68
2022/07/01 06:17:15;;;;;;;10.85;4.20;;;;;;;;;;5073373;28;20035;-69
2022/07/01 06:19:41;;;;;;;9.00;4.13;;;;;;;;;;5071379;28;20183;-68
2022/07/01 06:22:07;;;;;;;7.00;3.67;;;;;;;;;;5072863;28;20092;-68
2022/07/01 06:24:33;;;;;;;14.20;4.10;;;;;;;;;;5073378;28;20044;-69
2022/07/01 06:26:59;;;;;;;8.32;3.45;;;;;;;;;;5073340;28;20368;-67
2022/07/01 06:29:27;;;;;;;8.85;4.10;;;;;;;;;;5073021;28;20069;-69
2022/07/01 06:31:53;;;;;;;8.82;3.92;;;;;;;;;;5073019;28;20056;-67
2022/07/01 06:34:20;;;;;;;12.32;4.90;;;;;;;;;;5073153;28;20038;-67
2022/07/01 06:36:45;;;;;;;6.88;3.50;;;;;;;;;;5074023;28;20035;-68
2022/07/01 06:39:11;;;;;;;7.63;3.78;;;;;;;;;;5074393;28;20108;-67
2022/07/01 06:41:37;;;;;;;7.82;4.05;;;;;;;;;;5073884;28;20031;-69
2022/07/01 06:44:04;;;;;;;5.60;3.60;;;;;;;;;;5073101;28;20085;-71
2022/07/01 06:46:31;;;;;;;7.97;3.63;;;;;;;;;;5074228;28;20391;-69
2022/07/01 06:48:58;;;;;;;11.32;3.92;;;;;;;;;;5073989;28;20020;-72
2022/07/01 06:51:24;;;;;;;10.00;4.13;;;;;;;;;;5074100;28;20123;-68
2022/07/01 06:53:50;;;;;;;15.98;4.47;;;;;;;;;;5073994;28;20024;-67
2022/07/01 06:56:17;;;;;;;9.20;4.13;;;;;;;;;;5073462;28;20028;-68
2022/07/01 06:58:43;;;;;;;7.65;3.88;;;;;;;;;;5073799;28;20395;-68
2022/07/01 07:01:09;;;;;;;9.48;4.90;;;;;;;;;;5073874;28;20036;-68
2022/07/01 07:03:35;;;;;;;8.90;3.92;;;;;;;;;;5074167;28;20021;-69
2022/07/01 07:06:03;;;;;;;10.60;4.15;;;;;;;;;;5073129;28;20070;-68
2022/07/01 07:08:30;;;;;;;6.95;3.53;;;;;;;;;;5073508;28;20028;-70
2022/07/01 07:10:57;;;;;;;7.85;3.92;;;;;;;;;;5073285;28;20036;-67
2022/07/01 07:13:23;;;;;;;10.52;4.30;;;;;;;;;;5073713;28;20161;-69
2022/07/01 07:15:49;;;;;;;11.27;4.20;;;;;;;;;;5071793;28;20040;-70
2022/07/01 07:18:14;;;;;;;9.02;4.03;;;;;;;;;;5066474;28;20107;-74
2022/07/01 07:20:40;;;;;;;8.88;3.90;;;;;;;;;;5057250;28;20128;-69
2022/07/01 07:23:06;;;;;;;10.63;5.20;;;;;;;;;;5062155;28;20029;-72
2022/07/01 07:25:32;;;;;;;11.40;3.95;;;;;;;;;;5063738;28;20043;-74
2022/07/01 07:27:58;;;;;;;7.18;3.80;;;;;;;;;;5058773;28;20029;-72
2022/07/01 07:30:24;;;;;;;17.88;5.07;;;;;;;;;;5055595;28;20033;-71
2022/07/01 07:32:50;;;;;;;10.10;4.40;;;;;;;;;;5053712;28;20032;-73
2022/07/01 07:35:16;;;;;;;14.45;4.38;;;;;;;;;;5059333;28;20033;-72
2022/07/01 07:37:42;;;;;;;7.35;3.60;;;;;;;;;;5066721;28;20158;-74
2022/07/01 07:40:11;;;;;;;11.75;3.78;;;;;;;;;;5060865;28;20037;-69
2022/07/01 07:42:39;;;;;;;8.43;3.08;;;;;;;;;;5053628;28;20029;-68
2022/07/01 07:45:06;;;;;;;5.80;3.05;;;;;;;;;;5052219;28;20068;-71
2022/07/01 07:47:33;;;;;;;4.45;3.17;;;;;;;;;;5067302;28;20028;-72
2022/07/01 07:50:00;;;;;;;5.93;3.50;;;;;;;;;;5064247;28;20032;-72
2022/07/01 07:52:25;;;;;;;6.45;4.28;;;;;;;;;;5062104;28;20029;-71
2022/07/01 07:54:51;;;;;;;8.55;3.00;;;;;;;;;;5060507;28;20025;-77
2022/07/01 07:57:17;;;;;;;10.15;3.40;;;;;;;;;;5048859;28;20075;-76
2022/07/01 07:59:43;;;;;;;10.18;3.55;;;;;;;;;;5060885;28;20104;-74
2022/07/01 08:02:09;;;;;;;6.38;3.60;;;;;;;;;;5069139;28;20485;-78
2022/07/01 08:04:35;;;;;;;3.85;2.60;;;;;;;;;;5069438;28;20147;-71
2022/07/01 08:07:01;;;;;;;4.68;3.10;;;;;;;;;;5069723;28;20040;-71
2022/07/01 08:09:27;;;;;;;7.57;2.70;;;;;;;;;;5070620;28;20037;-70
2022/07/01 08:11:53;;;;;;;5.53;3.08;;;;;;;;;;5070402;28;20090;-72
2022/07/01 08:14:19;;;;;;;6.15;2.97;;;;;;;;;;5071506;28;20036;-73
2022/07/01 08:16:45;;;;;;;7.93;3.13;;;;;;;;;;5069414;28;20017;-76
2022/07/01 08:19:10;;;;;;;11.05;2.90;;;;;;;;;;5054018;28;20388;-72
2022/07/01 08:21:36;;;;;;;5.03;2.80;;;;;;;;;;5062432;28;20043;-73
2022/07/01 08:24:02;;;;;;;7.18;2.90;;;;;;;;;;5062292;28;20136;-72
2022/07/01 08:26:28;;;;;;;4.18;2.78;;;;;;;;;;5052305;28;20143;-72
2022/07/01 08:28:54;;;;;;;6.78;3.35;;;;;;;;;;5051213;28;20067;-74
2022/07/01 08:31:20;;;;;;;8.65;3.60;;;;;;;;;;5049739;28;20053;-75
2022/07/01 08:33:46;;;;;;;7.60;3.35;;;;;;;;;;5050626;28;20500;-73
2022/07/01 08:36:13;;;;;;;6.63;3.30;;;;;;;;;;5051166;28;20060;-72
2022/07/01 08:38:41;;;;;;;7.55;3.15;;;;;;;;;;5069492;28;20073;-74
2022/07/01 08:41:08;;;;;;;6.53;2.80;;;;;;;;;;5070722;28;20128;-74
2022/07/01 08:43:35;;;;;;;8.50;2.95;;;;;;;;;;5070899;28;20039;-76
2022/07/01 08:46:03;;;;;;;5.53;3.10;;;;;;;;;;5071002;28;20031;-73
2022/07/01 08:48:30;;;;;;;6.43;3.30;;;;;;;;;;5063921;28;20090;-75
2022/07/01 08:50:56;;;;;;;6.53;3.00;;;;;;;;;;5065812;28;20025;-74
2022/07/01 08:53:22;;;;;;;7.05;3.22;;;;;;;;;;5070992;28;20103;-75
2022/07/01 08:58:33;;;;;;;6.25;3.20;;;;;;;;;;5071407;28;20079;-74
2022/07/01 09:01:24;;;;;;;7.35;3.08;;;;;;;;;;5066561;28;20029;-72
2022/07/01 09:03:55;;;;;;;6.78;2.90;;;;;;;;;;5069039;28;20097;-74
2022/07/01 09:06:29;;;;;;;5.53;2.40;;;;;;;;;;5070192;28;20029;-77
2022/07/01 09:09:09;;;;;;;5.97;2.95;;;;;;;;;;5069013;28;20033;-75
2022/07/01 09:11:35;;;;;;;5.65;2.88;;;;;;;;;;5054179;28;20068;-71
2022/07/01 09:14:12;;;;;;;8.57;3.28;;;;;;;;;;5068988;28;20063;-76
2022/07/01 09:16:46;;;;;;;5.88;3.17;;;;;;;;;;5069447;28;20029;-74
2022/07/01 09:19:13;;;;;;;6.32;3.05;;;;;;;;;;5069503;28;20094;-73
2022/07/01 09:21:39;;;;;;;6.43;2.97;;;;;;;;;;5069794;28;20055;-71
2022/07/01 09:24:32;;;;;;;12.35;3.20;;;;;;;;;;5068954;28;20131;-73
2022/07/01 09:27:03;;;;;;;4.32;2.42;;;;;;;;;;5062707;28;20102;-73
2022/07/01 09:29:32;;;;;;;5.22;2.88;;;;;;;;;;5060680;28;20673;-74
2022/07/01 09:32:09;;;;;;;4.05;2.80;;;;;;;;;;5069377;28;20433;-77
2022/07/01 09:34:47;;;;;;;6.35;3.33;;;;;;;;;;5072407;28;20108;-73
2022/07/01 09:37:19;;;;;;;5.95;2.58;;;;;;;;;;5073916;28;20080;-77
2022/07/01 09:39:53;;;;;;;5.90;2.90;;;;;;;;;;5073325;28;20059;-77
2022/07/01 09:42:21;;;;;;;6.63;2.95;;;;;;;;;;5053397;28;20047;-72
2022/07/01 09:45:07;;;;;;;5.78;2.78;;;;;;;;;;5053509;28;20475;-75
2022/07/01 09:47:39;;;;;;;6.35;2.85;;;;;;;;;;5053175;28;20052;-76
2022/07/01 09:50:06;;;;;;;;;;;;;;;;;;5054027;28;20036;-75
2022/07/01 09:52:32;;;;;;;3.30;2.70;;;;;;;;;;5053937;28;20290;-75
2022/07/01 09:54:58;;;;;;;5.50;2.58;;;;;;;;;;5072669;28;20519;-73
2022/07/01 09:57:24;;;;;;;11.98;4.22;;;;;;;;;;5073848;28;20051;-72
2022/07/01 09:59:51;;;;;;;4.10;2.80;;;;;;;;;;5073778;28;20028;-70
2022/07/01 10:02:21;;;;;;;3.75;2.53;;;;;;;;;;5073412;28;20043;-74
2022/07/01 10:04:59;;;;;;;4.97;2.75;;;;;;;;;;5070419;28;20040;-75
2022/07/01 10:08:01;;;;;;;5.93;2.63;;;;;;;;;;5069974;28;20025;-75
2022/07/01 10:11:01;;;;;;;5.43;2.63;;;;;;;;;;5071552;28;20041;-74
2022/07/01 10:13:30;;;;;;;6.97;2.65;;;;;;;;;;5066404;28;20112;-77
2022/07/01 10:15:56;;;;;;;4.45;2.47;;;;;;;;;;5053512;28;20383;-77
2022/07/01 10:18:24;;;;;;;5.03;2.80;;;;;;;;;;5052891;28;20025;-75
2022/07/01 10:20:52;;;;;;;5.65;2.55;;;;;;;;;;5053523;28;20049;-74
2022/07/01 10:23:24;;;;;;;10.73;3.05;;;;;;;;;;5060143;28;20431;-73
2022/07/01 10:25:51;;;;;;;7.15;3.00;;;;;;;;;;5053746;28;20037;-72
2022/07/01 10:28:23;;;;;;;3.63;2.45;;;;;;;;;;5062595;28;20110;-73
2022/07/01 10:30:56;;;;;;;5.77;2.70;;;;;;;;;;5053729;28;20041;-78
2022/07/01 10:33:33;;;;;;;5.57;2.70;;;;;;;;;;5053417;28;20456;-75
2022/07/01 10:36:07;;;;;;;3.58;2.60;;;;;;;;;;5053923;28;20044;-77
2022/07/01 10:38:34;;;;;;;6.78;2.85;;;;;;;;;;5054023;28;20104;-78
2022/07/01 10:41:09;;;;;;;10.50;3.10;;;;;;;;;;5054760;28;20028;-73
2022/07/01 10:43:37;;;;;;;4.95;2.60;;;;;;;;;;5052030;28;20451;-73
2022/07/01 10:46:04;;;;;;;5.10;2.90;;;;;;;;;;5062305;28;20512;-72
2022/07/01 10:48:31;;;;;;;9.52;3.00;;;;;;;;;;5069813;28;20116;-74
2022/07/01 10:50:57;;;;;;;5.13;2.83;;;;;;;;;;5073245;28;20178;-70
2022/07/01 10:53:23;;;;;;;6.38;3.05;;;;;;;;;;5073471;28;20039;-71
2022/07/01 10:55:53;;;;;;;5.22;2.50;;;;;;;;;;5072718;28;20016;-74
2022/07/01 10:58:35;;;;;;;13.60;6.85;;;;;;;;;;5062999;28;20037;-74
2022/07/01 11:01:03;;;;;;;6.03;2.80;;;;;;;;;;5065246;28;20035;-74
2022/07/01 11:03:33;;;;;;;9.38;2.60;;;;;;;;;;5059698;28;20028;-73
2022/07/01 11:05:59;;;;;;;9.75;2.90;;;;;;;;;;5065118;28;20039;-75
2022/07/01 11:08:25;;;;;;;3.10;2.58;;;;;;;;;;5072808;28;20021;-71
2022/07/01 11:10:55;;;;;;;9.65;3.45;;;;;;;;;;5071963;28;20078;-77
2022/07/01 11:13:21;;;;;;;11.93;3.33;;;;;;;;;;5071809;28;20104;-75
2022/07/01 11:15:47;;;;;;;8.00;2.83;;;;;;;;;;5072821;28;20131;-75
2022/07/01 11:18:16;;;;;;;5.80;3.05;;;;;;;;;;5071841;28;20060;-73
2022/07/01 11:20:41;;;;;;;4.70;3.30;;;;;;;;;;5072310;28;20041;-76
2022/07/01 11:23:07;;;;;;;8.57;2.97;;;;;;;;;;5071807;28;20036;-69
2022/07/01 11:25:34;;;;;;;9.68;3.40;;;;;;;;;;5071124;28;20040;-70
2022/07/01 11:28:00;;;;;;;4.38;3.08;;;;;;;;;;5072323;28;20036;-69
2022/07/01 11:30:27;;;;;;;6.50;2.97;;;;;;;;;;5072476;28;20021;-70
2022/07/01 11:32:55;;;;;;;7.15;3.00;;;;;;;;;;5071745;28;20025;-71
2022/07/01 11:40:56;;;;;;;4.85;2.50;;;;;;;;;;5071501;28;20038;-73
2022/07/01 11:43:28;;;;;;;6.22;2.50;;;;;;;;;;5071394;28;20028;-72
2022/07/01 11:45:57;;;;;;;6.00;2.95;;;;;;;;;;5071521;28;20036;-71
2022/07/01 11:48:51;;;;;;;8.35;3.80;;;;;;;;;;5053644;28;20024;-70
2022/07/01 11:51:23;;;;;;;5.22;2.97;;;;;;;;;;5070932;28;20025;-75
2022/07/01 11:53:52;;;;;;;5.38;2.72;;;;;;;;;;5070488;28;20441;-76
2022/07/01 11:56:29;;;;;;;3.85;2.42;;;;;;;;;;5071829;28;20079;-73
2022/07/01 11:58:56;;;;;;;5.82;2.67;;;;;;;;;;5071788;28;20077;-70
2022/07/01 12:01:25;;;;;;;4.10;2.50;;;;;;;;;;5071473;28;20475;-76
2022/07/01 12:03:51;;;;;;;6.72;2.50;;;;;;;;;;5070495;28;20037;-75
2022/07/01 12:06:19;;;;;;;6.45;2.78;;;;;;;;;;5072306;28;20113;-75
2022/07/01 12:08:47;;;;;;;4.53;2.80;;;;;;;;;;5061377;28;20029;-76
2022/07/01 12:11:14;;;;;;;6.20;3.03;;;;;;;;;;5060572;28;20036;-76
2022/07/01 12:13:40;;;;;;;3.55;2.78;;;;;;;;;;5065222;28;20476;-67
2022/07/01 12:16:07;;;;;;;7.75;3.08;;;;;;;;;;5055874;28;20020;-73
2022/07/01 12:18:33;;;;;;;7.65;3.25;;;;;;;;;;5073559;28;20386;-71
2022/07/01 12:20:59;;;;;;;7.00;3.67;;;;;;;;;;5072255;28;20049;-74
2022/07/01 12:23:25;;;;;;;5.80;2.75;;;;;;;;;;5062406;28;20036;-68
2022/07/01 12:25:52;;;;;;;9.15;2.95;;;;;;;;;;5051513;28;20051;-71
2022/07/01 12:28:43;;;;;;;7.50;2.90;;;;;;;;;;5054500;28;20110;-70
2022/07/01 12:31:10;;;;;;;4.40;2.70;;;;;;;;;;5066457;28;20502;-70
2022/07/01 12:33:48;;;;;;;6.43;3.08;;;;;;;;;;5071376;28;20386;-69
2022/07/01 12:36:15;;;;;;;6.53;2.95;;;;;;;;;;5070719;28;20082;-72
2022/07/01 12:38:42;;;;;;;5.95;2.80;;;;;;;;;;5070946;28;20128;-72
2022/07/01 12:41:33;;;;;;;5.47;2.60;;;;;;;;;;5070653;28;20127;-75
2022/07/01 12:44:01;;;;;;;5.25;3.10;;;;;;;;;;5071175;28;20074;-70
2022/07/01 12:46:31;;;;;;;4.78;2.70;;;;;;;;;;5070952;28;20180;-71
2022/07/01 12:48:58;;;;;;;7.35;2.90;;;;;;;;;;5071032;28;20050;-76
2022/07/01 12:51:32;;;;;;;4.30;2.63;;;;;;;;;;5071364;28;20017;-77
2022/07/01 12:53:59;;;;;;;7.50;3.03;;;;;;;;;;5069536;28;20457;-73
2022/07/01 12:56:27;;;;;;;5.93;3.20;;;;;;;;;;5071202;28;20029;-73
2022/07/01 12:58:53;;;;;;;4.40;2.65;;;;;;;;;;5070484;28;20053;-69
2022/07/01 13:01:20;;;;;;;9.65;2.83;;;;;;;;;;5070365;28;20082;-70
2022/07/01 13:03:47;;;;;;;5.30;2.60;;;;;;;;;;5072732;28;20040;-69
2022/07/01 13:06:13;;;;;;;4.70;2.90;;;;;;;;;;5075047;28;20028;-70
2022/07/01 13:08:38;;;;;;;5.95;2.50;;;;;;;;;;5074472;28;20470;-70
2022/07/01 13:11:06;;;;;;;7.28;2.95;;;;;;;;;;5075329;28;20032;-72
2022/07/01 13:13:32;;;;;;;8.15;3.00;;;;;;;;;;5075182;28;20113;-70
2022/07/01 13:15:58;;;;;;;5.72;3.00;;;;;;;;;;5074522;28;20020;-69
2022/07/01 13:18:24;;;;;;;4.07;2.70;;;;;;;;;;5075268;28;20029;-70
2022/07/01 13:20:50;;;;;;;4.18;3.20;;;;;;;;;;5074250;28;20055;-71
2022/07/01 13:23:16;;;;;;;6.20;3.13;;;;;;;;;;5074356;28;20036;-77
2022/07/01 13:25:43;;;;;;;5.85;3.00;;;;;;;;;;5074734;28;20386;-73
2022/07/01 13:28:09;;;;;;;4.63;3.10;;;;;;;;;;5074785;28;20027;-73
2022/07/01 13:30:38;;;;;;;4.32;2.92;;;;;;;;;;5074407;28;20163;-72
2022/07/01 13:33:04;;;;;;;6.07;2.70;;;;;;;;;;5074306;28;20429;-76
2022/07/01 13:35:30;;;;;;;5.70;2.80;;;;;;;;;;5074799;28;20035;-72
2022/07/01 13:37:56;;;;;;;9.38;3.13;;;;;;;;;;5074746;28;20033;-72
2022/07/01 13:40:21;;;;;;;6.72;2.72;;;;;;;;;;5074930;28;20024;-72
2022/07/01 13:42:48;;;;;;;5.03;2.90;;;;;;;;;;5074782;28;20537;-74
2022/07/01 13:45:14;;;;;;;4.68;2.80;;;;;;;;;;5073928;28;20085;-75
2022/07/01 13:47:40;;;;;;;9.15;3.08;;;;;;;;;;5074980;28;20033;-70
2022/07/01 13:50:07;;;;;;;4.28;2.92;;;;;;;;;;5074088;28;20048;-73
2022/07/01 13:52:33;;;;;;;4.95;3.00;;;;;;;;;;5074089;28;20032;-74
2022/07/01 13:54:59;;;;;;;3.95;3.17;;;;;;;;;;5074632;28;20462;-73
2022/07/01 13:57:25;;;;;;;3.15;2.85;;;;;;;;;;5073924;28;20143;-71
2022/07/01 13:59:52;;;;;;;9.23;3.17;;;;;;;;;;5072136;28;20043;-73
2022/07/01 14:02:18;;;;;;;3.88;2.65;;;;;;;;;;5074024;28;20435;-70
2022/07/01 14:04:46;;;;;;;3.60;3.08;;;;;;;;;;5073442;28;20059;-71
2022/07/01 14:07:12;;;;;;;7.85;3.40;;;;;;;;;;5074098;28;20032;-69
2022/07/01 14:09:40;;;;;;;5.68;2.80;;;;;;;;;;5076246;28;20051;-71
2022/07/01 14:12:06;;;;;;;6.95;3.30;;;;;;;;;;5074920;28;20401;-70
2022/07/01 14:14:32;;;;;;;4.63;2.67;;;;;;;;;;5074159;28;20040;-69
2022/07/01 14:16:58;;;;;;;4.07;3.08;;;;;;;;;;5074523;28;20033;-69
2022/07/01 14:19:24;;;;;;;4.10;2.70;;;;;;;;;;5074496;28;20541;-73
2022/07/01 14:21:50;;;;;;;5.05;3.10;;;;;;;;;;5072508;28;20036;-74
2022/07/01 14:24:16;;;;;;;3.65;3.10;;;;;;;;;;5074156;28;20037;-72
2022/07/01 14:26:42;;;;;;;4.15;2.83;;;;;;;;;;5074278;28;20033;-74
2022/07/01 14:29:07;;;;;;;4.47;2.40;;;;;;;;;;5073718;28;20024;-71
2022/07/01 14:31:33;;;;;;;8.93;2.50;;;;;;;;;;5074429;28;20040;-69
2022/07/01 14:33:59;;;;;;;3.92;2.35;;;;;;;;;;5074280;28;20429;-69
2022/07/01 14:36:25;;;;;;;6.70;2.60;;;;;;;;;;5073616;28;20032;-72
2022/07/01 14:38:51;;;;;;;4.38;2.30;;;;;;;;;;5071456;28;20025;-69
2022/07/01 14:41:16;;;;;;;4.43;2.67;;;;;;;;;;5074075;28;20036;-71
2022/07/01 14:43:43;;;;;;;5.90;2.28;;;;;;;;;;5073412;28;20467;-70
2022/07/01 14:46:11;;;;;;;7.05;2.50;;;;;;;;;;5073463;28;20361;-70
2022/07/01 14:48:38;;;;;;;6.07;2.50;;;;;;;;;;5073373;28;20029;-71
2022/07/01 14:51:05;;;;;;;3.67;2.70;;;;;;;;;;5071932;28;20036;-69
2022/07/01 14:53:32;;;;;;;5.40;2.90;;;;;;;;;;5073488;28;20023;-71
2022/07/01 14:55:57;;;;;;;4.75;2.38;;;;;;;;;;5069230;28;20471;-74
2022/07/01 14:58:23;;;;;;;4.43;2.58;;;;;;;;;;5072822;28;20039;-74
2022/07/01 15:00:49;;;;;;;5.10;2.58;;;;;;;;;;5072892;28;20044;-71